sensor_id;sensor_type;location;lat;lon;timestamp;P1;durP1;ratioP1;P2;durP2;ratioP2
53108;SDS011;39007;53.090;6.074;2023-04-25T00:01:39;20.38;;;4.95;;
53108;SDS011;39007;53.090;6.074;2023-04-25T00:04:05;23.48;;;5.32;;
53108;SDS011;39007;53.090;6.074;2023-04-25T00:06:32;20.05;;;4.47;;
53108;SDS011;39007;53.090;6.074;2023-04-25T00:09:01;24.75;;;5.47;;
53108;SDS011;39007;53.090;6.074;2023-04-25T00:11:28;25.20;;;5.30;;
53108;SDS011;39007;53.090;6.074;2023-04-25T00:13:56;23.17;;;5.25;;
53108;SDS011;39007;53.090;6.074;2023-04-25T00:16:22;22.48;;;4.72;;
53108;SDS011;39007;53.090;6.074;2023-04-25T00:18:48;24.05;;;5.45;;
53108;SDS011;39007;53.090;6.074;2023-04-25T00:21:19;25.83;;;5.20;;
53108;SDS011;39007;53.090;6.074;2023-04-25T00:23:45;23.67;;;5.35;;
53108;SDS011;39007;53.090;6.074;2023-04-25T00:26:12;21.50;;;4.80;;
53108;SDS011;39007;53.090;6.074;2023-04-25T00:28:38;18.50;;;4.57;;
53108;SDS011;39007;53.090;6.074;2023-04-25T00:31:05;21.35;;;4.95;;
53108;SDS011;39007;53.090;6.074;2023-04-25T00:33:31;24.83;;;5.18;;
53108;SDS011;39007;53.090;6.074;2023-04-25T00:35:57;22.23;;;5.00;;
53108;SDS011;39007;53.090;6.074;2023-04-25T00:38:23;25.08;;;4.47;;
53108;SDS011;39007;53.090;6.074;2023-04-25T00:40:49;21.02;;;4.93;;
53108;SDS011;39007;53.090;6.074;2023-04-25T00:43:15;19.17;;;4.55;;
53108;SDS011;39007;53.090;6.074;2023-04-25T00:45:41;20.48;;;4.45;;
53108;SDS011;39007;53.090;6.074;2023-04-25T00:48:08;19.73;;;5.03;;
53108;SDS011;39007;53.090;6.074;2023-04-25T00:50:35;27.95;;;5.28;;
53108;SDS011;39007;53.090;6.074;2023-04-25T00:53:01;18.23;;;4.13;;
53108;SDS011;39007;53.090;6.074;2023-04-25T00:55:28;25.25;;;4.68;;
53108;SDS011;39007;53.090;6.074;2023-04-25T00:57:56;21.90;;;4.40;;
53108;SDS011;39007;53.090;6.074;2023-04-25T01:00:22;19.30;;;4.82;;
53108;SDS011;39007;53.090;6.074;2023-04-25T01:02:48;24.15;;;5.32;;
53108;SDS011;39007;53.090;6.074;2023-04-25T01:05:15;21.67;;;4.97;;
53108;SDS011;39007;53.090;6.074;2023-04-25T01:07:42;25.92;;;4.82;;
53108;SDS011;39007;53.090;6.074;2023-04-25T01:10:08;23.60;;;4.47;;
53108;SDS011;39007;53.090;6.074;2023-04-25T01:12:34;25.88;;;5.50;;
53108;SDS011;39007;53.090;6.074;2023-04-25T01:15:01;21.50;;;4.53;;
53108;SDS011;39007;53.090;6.074;2023-04-25T01:17:27;20.75;;;4.95;;
53108;SDS011;39007;53.090;6.074;2023-04-25T01:19:54;21.15;;;4.32;;
53108;SDS011;39007;53.090;6.074;2023-04-25T01:22:20;19.02;;;4.30;;
53108;SDS011;39007;53.090;6.074;2023-04-25T01:24:47;26.58;;;4.70;;
53108;SDS011;39007;53.090;6.074;2023-04-25T01:27:14;23.55;;;4.80;;
53108;SDS011;39007;53.090;6.074;2023-04-25T01:29:41;21.83;;;4.57;;
53108;SDS011;39007;53.090;6.074;2023-04-25T01:32:07;17.77;;;4.97;;
53108;SDS011;39007;53.090;6.074;2023-04-25T01:34:34;22.42;;;4.32;;
53108;SDS011;39007;53.090;6.074;2023-04-25T01:37:00;16.88;;;4.20;;
53108;SDS011;39007;53.090;6.074;2023-04-25T01:39:26;24.45;;;4.28;;
53108;SDS011;39007;53.090;6.074;2023-04-25T01:41:53;18.85;;;4.20;;
53108;SDS011;39007;53.090;6.074;2023-04-25T01:44:19;19.25;;;4.70;;
53108;SDS011;39007;53.090;6.074;2023-04-25T01:46:45;23.48;;;4.18;;
53108;SDS011;39007;53.090;6.074;2023-04-25T01:49:11;23.27;;;4.28;;
53108;SDS011;39007;53.090;6.074;2023-04-25T01:51:37;20.02;;;3.95;;
53108;SDS011;39007;53.090;6.074;2023-04-25T01:54:04;15.88;;;3.17;;
53108;SDS011;39007;53.090;6.074;2023-04-25T01:56:30;15.60;;;3.85;;
53108;SDS011;39007;53.090;6.074;2023-04-25T01:58:57;13.88;;;3.00;;
53108;SDS011;39007;53.090;6.074;2023-04-25T02:01:23;12.40;;;2.90;;
53108;SDS011;39007;53.090;6.074;2023-04-25T02:03:49;18.13;;;3.10;;
53108;SDS011;39007;53.090;6.074;2023-04-25T02:06:15;12.57;;;2.75;;
53108;SDS011;39007;53.090;6.074;2023-04-25T02:08:41;10.38;;;3.00;;
53108;SDS011;39007;53.090;6.074;2023-04-25T02:11:07;17.40;;;3.22;;
53108;SDS011;39007;53.090;6.074;2023-04-25T02:13:33;15.38;;;2.80;;
53108;SDS011;39007;53.090;6.074;2023-04-25T02:15:59;14.90;;;2.78;;
53108;SDS011;39007;53.090;6.074;2023-04-25T02:18:25;15.98;;;3.30;;
53108;SDS011;39007;53.090;6.074;2023-04-25T02:20:51;15.02;;;2.70;;
53108;SDS011;39007;53.090;6.074;2023-04-25T02:23:17;15.68;;;3.17;;
53108;SDS011;39007;53.090;6.074;2023-04-25T02:25:44;16.17;;;2.97;;
53108;SDS011;39007;53.090;6.074;2023-04-25T02:28:10;14.20;;;3.30;;
53108;SDS011;39007;53.090;6.074;2023-04-25T02:30:37;18.83;;;3.20;;
53108;SDS011;39007;53.090;6.074;2023-04-25T02:33:03;16.65;;;3.08;;
53108;SDS011;39007;53.090;6.074;2023-04-25T02:35:29;12.68;;;3.20;;
53108;SDS011;39007;53.090;6.074;2023-04-25T02:37:55;17.17;;;3.45;;
53108;SDS011;39007;53.090;6.074;2023-04-25T02:40:21;13.32;;;3.20;;
53108;SDS011;39007;53.090;6.074;2023-04-25T02:42:47;15.88;;;3.10;;
53108;SDS011;39007;53.090;6.074;2023-04-25T02:45:13;16.65;;;3.28;;
53108;SDS011;39007;53.090;6.074;2023-04-25T02:47:40;16.80;;;3.67;;
53108;SDS011;39007;53.090;6.074;2023-04-25T02:50:06;20.50;;;3.80;;
53108;SDS011;39007;53.090;6.074;2023-04-25T02:52:32;21.38;;;4.18;;
53108;SDS011;39007;53.090;6.074;2023-04-25T02:54:58;15.82;;;3.28;;
53108;SDS011;39007;53.090;6.074;2023-04-25T02:57:24;19.90;;;4.32;;
53108;SDS011;39007;53.090;6.074;2023-04-25T02:59:50;12.60;;;2.72;;
53108;SDS011;39007;53.090;6.074;2023-04-25T03:02:16;14.25;;;3.33;;
53108;SDS011;39007;53.090;6.074;2023-04-25T03:04:42;15.80;;;3.15;;
53108;SDS011;39007;53.090;6.074;2023-04-25T03:07:08;13.38;;;3.17;;
53108;SDS011;39007;53.090;6.074;2023-04-25T03:09:34;15.32;;;3.92;;
53108;SDS011;39007;53.090;6.074;2023-04-25T03:12:01;12.55;;;2.90;;
53108;SDS011;39007;53.090;6.074;2023-04-25T03:14:27;15.70;;;3.22;;
53108;SDS011;39007;53.090;6.074;2023-04-25T03:16:53;10.25;;;2.65;;
53108;SDS011;39007;53.090;6.074;2023-04-25T03:19:19;14.85;;;2.60;;
53108;SDS011;39007;53.090;6.074;2023-04-25T03:21:45;10.60;;;2.45;;
53108;SDS011;39007;53.090;6.074;2023-04-25T03:24:11;11.30;;;2.92;;
53108;SDS011;39007;53.090;6.074;2023-04-25T03:26:37;10.68;;;2.60;;
53108;SDS011;39007;53.090;6.074;2023-04-25T03:29:04;12.65;;;2.45;;
53108;SDS011;39007;53.090;6.074;2023-04-25T03:31:30;8.02;;;2.50;;
53108;SDS011;39007;53.090;6.074;2023-04-25T03:33:56;15.00;;;3.22;;
53108;SDS011;39007;53.090;6.074;2023-04-25T03:36:22;11.73;;;2.60;;
53108;SDS011;39007;53.090;6.074;2023-04-25T03:38:48;9.82;;;2.38;;
53108;SDS011;39007;53.090;6.074;2023-04-25T03:41:15;11.30;;;2.78;;
53108;SDS011;39007;53.090;6.074;2023-04-25T03:43:41;12.27;;;2.55;;
53108;SDS011;39007;53.090;6.074;2023-04-25T03:46:07;10.57;;;2.60;;
53108;SDS011;39007;53.090;6.074;2023-04-25T03:48:33;14.70;;;3.30;;
53108;SDS011;39007;53.090;6.074;2023-04-25T03:50:59;13.55;;;2.78;;
53108;SDS011;39007;53.090;6.074;2023-04-25T03:53:25;19.15;;;3.45;;
53108;SDS011;39007;53.090;6.074;2023-04-25T03:55:51;14.80;;;3.35;;
53108;SDS011;39007;53.090;6.074;2023-04-25T03:58:17;21.88;;;4.22;;
53108;SDS011;39007;53.090;6.074;2023-04-25T04:00:43;15.70;;;3.00;;
53108;SDS011;39007;53.090;6.074;2023-04-25T04:03:09;14.80;;;3.05;;
53108;SDS011;39007;53.090;6.074;2023-04-25T04:05:36;16.40;;;3.40;;
53108;SDS011;39007;53.090;6.074;2023-04-25T04:08:02;18.73;;;3.67;;
53108;SDS011;39007;53.090;6.074;2023-04-25T04:10:28;19.58;;;3.50;;
53108;SDS011;39007;53.090;6.074;2023-04-25T04:12:54;15.00;;;3.15;;
53108;SDS011;39007;53.090;6.074;2023-04-25T04:15:20;19.70;;;3.72;;
53108;SDS011;39007;53.090;6.074;2023-04-25T04:17:48;17.10;;;3.47;;
53108;SDS011;39007;53.090;6.074;2023-04-25T04:20:14;15.82;;;3.55;;
53108;SDS011;39007;53.090;6.074;2023-04-25T04:22:40;15.27;;;3.70;;
53108;SDS011;39007;53.090;6.074;2023-04-25T04:25:06;16.52;;;3.30;;
53108;SDS011;39007;53.090;6.074;2023-04-25T04:27:32;17.23;;;3.50;;
53108;SDS011;39007;53.090;6.074;2023-04-25T04:29:59;19.40;;;3.33;;
53108;SDS011;39007;53.090;6.074;2023-04-25T04:32:26;18.52;;;4.18;;
53108;SDS011;39007;53.090;6.074;2023-04-25T04:34:53;12.85;;;3.10;;
53108;SDS011;39007;53.090;6.074;2023-04-25T04:37:20;13.55;;;2.85;;
53108;SDS011;39007;53.090;6.074;2023-04-25T04:39:47;16.83;;;3.28;;
53108;SDS011;39007;53.090;6.074;2023-04-25T04:42:13;14.82;;;3.47;;
53108;SDS011;39007;53.090;6.074;2023-04-25T04:44:39;12.80;;;2.80;;
53108;SDS011;39007;53.090;6.074;2023-04-25T04:47:05;16.77;;;3.17;;
53108;SDS011;39007;53.090;6.074;2023-04-25T04:49:31;12.90;;;2.92;;
53108;SDS011;39007;53.090;6.074;2023-04-25T04:51:57;13.60;;;3.42;;
53108;SDS011;39007;53.090;6.074;2023-04-25T04:54:25;19.50;;;3.28;;
53108;SDS011;39007;53.090;6.074;2023-04-25T04:56:52;14.27;;;3.03;;
53108;SDS011;39007;53.090;6.074;2023-04-25T04:59:18;14.73;;;3.42;;
53108;SDS011;39007;53.090;6.074;2023-04-25T05:01:44;15.50;;;3.13;;
53108;SDS011;39007;53.090;6.074;2023-04-25T05:04:11;16.33;;;2.92;;
53108;SDS011;39007;53.090;6.074;2023-04-25T05:06:37;11.65;;;2.85;;
53108;SDS011;39007;53.090;6.074;2023-04-25T05:09:04;10.73;;;2.70;;
53108;SDS011;39007;53.090;6.074;2023-04-25T05:11:30;16.98;;;2.92;;
53108;SDS011;39007;53.090;6.074;2023-04-25T05:13:56;9.35;;;2.78;;
53108;SDS011;39007;53.090;6.074;2023-04-25T05:16:22;12.43;;;2.80;;
53108;SDS011;39007;53.090;6.074;2023-04-25T05:18:48;10.68;;;2.58;;
53108;SDS011;39007;53.090;6.074;2023-04-25T05:21:14;12.55;;;3.03;;
53108;SDS011;39007;53.090;6.074;2023-04-25T05:23:46;13.25;;;2.70;;
53108;SDS011;39007;53.090;6.074;2023-04-25T05:26:12;13.63;;;2.88;;
53108;SDS011;39007;53.090;6.074;2023-04-25T05:28:41;11.15;;;2.30;;
53108;SDS011;39007;53.090;6.074;2023-04-25T05:31:09;15.05;;;3.15;;
53108;SDS011;39007;53.090;6.074;2023-04-25T05:33:35;13.43;;;2.67;;
53108;SDS011;39007;53.090;6.074;2023-04-25T05:36:01;10.10;;;2.75;;
53108;SDS011;39007;53.090;6.074;2023-04-25T05:38:27;11.82;;;2.75;;
53108;SDS011;39007;53.090;6.074;2023-04-25T05:40:53;14.73;;;3.17;;
53108;SDS011;39007;53.090;6.074;2023-04-25T05:43:19;13.00;;;2.65;;
53108;SDS011;39007;53.090;6.074;2023-04-25T05:45:46;13.50;;;3.35;;
53108;SDS011;39007;53.090;6.074;2023-04-25T05:48:12;11.70;;;2.70;;
53108;SDS011;39007;53.090;6.074;2023-04-25T05:50:38;9.27;;;2.65;;
53108;SDS011;39007;53.090;6.074;2023-04-25T05:53:04;13.20;;;2.65;;
53108;SDS011;39007;53.090;6.074;2023-04-25T05:55:30;14.55;;;2.83;;
53108;SDS011;39007;53.090;6.074;2023-04-25T05:57:57;16.05;;;3.40;;
53108;SDS011;39007;53.090;6.074;2023-04-25T06:00:23;14.73;;;3.05;;
53108;SDS011;39007;53.090;6.074;2023-04-25T06:02:49;14.05;;;2.65;;
53108;SDS011;39007;53.090;6.074;2023-04-25T06:05:15;12.65;;;2.97;;
53108;SDS011;39007;53.090;6.074;2023-04-25T06:07:41;13.80;;;2.72;;
53108;SDS011;39007;53.090;6.074;2023-04-25T06:10:08;15.20;;;3.13;;
53108;SDS011;39007;53.090;6.074;2023-04-25T06:12:35;11.95;;;2.95;;
53108;SDS011;39007;53.090;6.074;2023-04-25T06:15:01;10.63;;;2.35;;
53108;SDS011;39007;53.090;6.074;2023-04-25T06:17:27;10.50;;;2.50;;
53108;SDS011;39007;53.090;6.074;2023-04-25T06:19:53;11.45;;;2.80;;
53108;SDS011;39007;53.090;6.074;2023-04-25T06:22:19;10.15;;;2.10;;
53108;SDS011;39007;53.090;6.074;2023-04-25T06:24:45;10.10;;;2.15;;
53108;SDS011;39007;53.090;6.074;2023-04-25T06:27:11;9.55;;;2.45;;
53108;SDS011;39007;53.090;6.074;2023-04-25T06:29:37;9.60;;;2.53;;
53108;SDS011;39007;53.090;6.074;2023-04-25T06:32:03;8.90;;;2.10;;
53108;SDS011;39007;53.090;6.074;2023-04-25T06:34:29;10.10;;;2.00;;
53108;SDS011;39007;53.090;6.074;2023-04-25T06:36:55;8.88;;;2.20;;
53108;SDS011;39007;53.090;6.074;2023-04-25T06:39:21;7.43;;;1.85;;
53108;SDS011;39007;53.090;6.074;2023-04-25T06:41:49;8.20;;;1.60;;
53108;SDS011;39007;53.090;6.074;2023-04-25T06:44:15;14.48;;;2.30;;
53108;SDS011;39007;53.090;6.074;2023-04-25T06:46:41;9.90;;;1.95;;
53108;SDS011;39007;53.090;6.074;2023-04-25T06:49:08;10.90;;;2.20;;
53108;SDS011;39007;53.090;6.074;2023-04-25T06:51:34;9.32;;;2.42;;
53108;SDS011;39007;53.090;6.074;2023-04-25T06:54:00;9.40;;;2.42;;
53108;SDS011;39007;53.090;6.074;2023-04-25T06:56:26;11.88;;;2.47;;
53108;SDS011;39007;53.090;6.074;2023-04-25T06:58:53;11.10;;;2.50;;
53108;SDS011;39007;53.090;6.074;2023-04-25T07:01:19;15.68;;;2.70;;
53108;SDS011;39007;53.090;6.074;2023-04-25T07:03:45;15.23;;;2.85;;
53108;SDS011;39007;53.090;6.074;2023-04-25T07:06:11;13.82;;;2.92;;
53108;SDS011;39007;53.090;6.074;2023-04-25T07:08:37;13.05;;;2.75;;
53108;SDS011;39007;53.090;6.074;2023-04-25T07:11:03;11.02;;;2.50;;
53108;SDS011;39007;53.090;6.074;2023-04-25T07:13:29;11.90;;;2.70;;
53108;SDS011;39007;53.090;6.074;2023-04-25T07:15:56;16.08;;;2.50;;
53108;SDS011;39007;53.090;6.074;2023-04-25T07:18:22;12.25;;;2.60;;
53108;SDS011;39007;53.090;6.074;2023-04-25T07:20:48;10.45;;;2.40;;
53108;SDS011;39007;53.090;6.074;2023-04-25T07:23:14;11.98;;;2.80;;
53108;SDS011;39007;53.090;6.074;2023-04-25T07:25:40;12.68;;;2.50;;
53108;SDS011;39007;53.090;6.074;2023-04-25T07:28:06;9.50;;;2.80;;
53108;SDS011;39007;53.090;6.074;2023-04-25T07:30:32;10.88;;;2.70;;
53108;SDS011;39007;53.090;6.074;2023-04-25T07:32:59;13.40;;;2.95;;
53108;SDS011;39007;53.090;6.074;2023-04-25T07:35:25;11.23;;;2.78;;
53108;SDS011;39007;53.090;6.074;2023-04-25T07:37:51;13.35;;;2.60;;
53108;SDS011;39007;53.090;6.074;2023-04-25T07:40:18;12.65;;;2.53;;
53108;SDS011;39007;53.090;6.074;2023-04-25T07:42:44;15.00;;;2.85;;
53108;SDS011;39007;53.090;6.074;2023-04-25T07:45:10;10.40;;;2.70;;
53108;SDS011;39007;53.090;6.074;2023-04-25T07:47:36;14.75;;;2.30;;
53108;SDS011;39007;53.090;6.074;2023-04-25T07:50:03;13.02;;;2.38;;
53108;SDS011;39007;53.090;6.074;2023-04-25T07:52:29;11.95;;;2.42;;
53108;SDS011;39007;53.090;6.074;2023-04-25T07:54:55;12.77;;;2.63;;
53108;SDS011;39007;53.090;6.074;2023-04-25T07:57:23;12.25;;;2.65;;
53108;SDS011;39007;53.090;6.074;2023-04-25T07:59:50;14.40;;;2.83;;
53108;SDS011;39007;53.090;6.074;2023-04-25T08:02:16;15.45;;;2.92;;
53108;SDS011;39007;53.090;6.074;2023-04-25T08:04:42;13.07;;;3.05;;
53108;SDS011;39007;53.090;6.074;2023-04-25T08:07:08;9.02;;;2.42;;
53108;SDS011;39007;53.090;6.074;2023-04-25T08:09:34;11.73;;;2.78;;
53108;SDS011;39007;53.090;6.074;2023-04-25T08:12:02;11.90;;;2.50;;
53108;SDS011;39007;53.090;6.074;2023-04-25T08:14:28;10.88;;;2.50;;
53108;SDS011;39007;53.090;6.074;2023-04-25T08:17:00;10.73;;;2.30;;
53108;SDS011;39007;53.090;6.074;2023-04-25T08:19:26;11.65;;;2.70;;
53108;SDS011;39007;53.090;6.074;2023-04-25T08:21:52;10.07;;;2.25;;
53108;SDS011;39007;53.090;6.074;2023-04-25T08:24:18;10.80;;;2.40;;
53108;SDS011;39007;53.090;6.074;2023-04-25T08:26:44;11.57;;;2.70;;
53108;SDS011;39007;53.090;6.074;2023-04-25T08:29:10;9.30;;;2.33;;
53108;SDS011;39007;53.090;6.074;2023-04-25T08:31:36;10.23;;;2.40;;
53108;SDS011;39007;53.090;6.074;2023-04-25T08:34:03;12.32;;;2.17;;
53108;SDS011;39007;53.090;6.074;2023-04-25T08:36:29;10.07;;;2.47;;
53108;SDS011;39007;53.090;6.074;2023-04-25T08:38:57;10.70;;;2.85;;
53108;SDS011;39007;53.090;6.074;2023-04-25T08:41:24;10.80;;;2.60;;
53108;SDS011;39007;53.090;6.074;2023-04-25T08:43:50;16.63;;;5.25;;
53108;SDS011;39007;53.090;6.074;2023-04-25T08:46:18;13.93;;;2.92;;
53108;SDS011;39007;53.090;6.074;2023-04-25T08:48:44;10.32;;;2.72;;
53108;SDS011;39007;53.090;6.074;2023-04-25T08:51:15;10.52;;;2.30;;
53108;SDS011;39007;53.090;6.074;2023-04-25T08:53:41;10.23;;;2.60;;
53108;SDS011;39007;53.090;6.074;2023-04-25T08:56:08;11.13;;;2.65;;
53108;SDS011;39007;53.090;6.074;2023-04-25T08:58:34;11.85;;;2.50;;
53108;SDS011;39007;53.090;6.074;2023-04-25T09:01:01;14.50;;;2.50;;
53108;SDS011;39007;53.090;6.074;2023-04-25T09:03:27;11.55;;;2.75;;
53108;SDS011;39007;53.090;6.074;2023-04-25T09:05:53;26.98;;;14.13;;
53108;SDS011;39007;53.090;6.074;2023-04-25T09:08:20;17.48;;;3.60;;
53108;SDS011;39007;53.090;6.074;2023-04-25T09:10:46;11.18;;;2.80;;
53108;SDS011;39007;53.090;6.074;2023-04-25T09:13:13;13.23;;;2.92;;
53108;SDS011;39007;53.090;6.074;2023-04-25T09:15:46;9.95;;;2.83;;
53108;SDS011;39007;53.090;6.074;2023-04-25T09:18:13;12.10;;;3.05;;
53108;SDS011;39007;53.090;6.074;2023-04-25T09:20:43;7.70;;;2.00;;
53108;SDS011;39007;53.090;6.074;2023-04-25T09:23:09;10.43;;;2.67;;
53108;SDS011;39007;53.090;6.074;2023-04-25T09:25:36;10.85;;;2.45;;
53108;SDS011;39007;53.090;6.074;2023-04-25T09:28:05;8.48;;;2.22;;
53108;SDS011;39007;53.090;6.074;2023-04-25T09:30:32;14.10;;;2.88;;
53108;SDS011;39007;53.090;6.074;2023-04-25T09:33:08;8.77;;;2.28;;
53108;SDS011;39007;53.090;6.074;2023-04-25T09:38:00;11.75;;;2.42;;
53108;SDS011;39007;53.090;6.074;2023-04-25T09:40:26;10.43;;;2.10;;
53108;SDS011;39007;53.090;6.074;2023-04-25T09:42:53;10.38;;;2.55;;
53108;SDS011;39007;53.090;6.074;2023-04-25T09:45:19;13.40;;;2.55;;
53108;SDS011;39007;53.090;6.074;2023-04-25T09:47:46;7.78;;;2.17;;
53108;SDS011;39007;53.090;6.074;2023-04-25T09:50:15;11.65;;;2.85;;
53108;SDS011;39007;53.090;6.074;2023-04-25T09:52:42;10.20;;;2.10;;
53108;SDS011;39007;53.090;6.074;2023-04-25T09:55:08;12.20;;;2.28;;
53108;SDS011;39007;53.090;6.074;2023-04-25T09:57:34;7.47;;;2.22;;
53108;SDS011;39007;53.090;6.074;2023-04-25T10:00:05;10.02;;;2.20;;
53108;SDS011;39007;53.090;6.074;2023-04-25T10:02:34;6.28;;;2.08;;
53108;SDS011;39007;53.090;6.074;2023-04-25T10:05:00;10.65;;;2.42;;
53108;SDS011;39007;53.090;6.074;2023-04-25T10:07:29;10.18;;;2.17;;
53108;SDS011;39007;53.090;6.074;2023-04-25T10:10:02;6.88;;;1.92;;
53108;SDS011;39007;53.090;6.074;2023-04-25T10:12:29;14.27;;;2.58;;
53108;SDS011;39007;53.090;6.074;2023-04-25T10:14:58;9.13;;;2.30;;
53108;SDS011;39007;53.090;6.074;2023-04-25T10:17:28;9.20;;;2.40;;
53108;SDS011;39007;53.090;6.074;2023-04-25T10:19:54;9.15;;;2.00;;
53108;SDS011;39007;53.090;6.074;2023-04-25T10:24:53;8.80;;;2.13;;
53108;SDS011;39007;53.090;6.074;2023-04-25T10:27:21;8.93;;;2.28;;
53108;SDS011;39007;53.090;6.074;2023-04-25T10:29:59;12.20;;;2.65;;
53108;SDS011;39007;53.090;6.074;2023-04-25T10:32:26;12.95;;;2.47;;
53108;SDS011;39007;53.090;6.074;2023-04-25T10:34:52;7.65;;;1.92;;
53108;SDS011;39007;53.090;6.074;2023-04-25T10:37:18;10.00;;;2.40;;
53108;SDS011;39007;53.090;6.074;2023-04-25T10:39:44;9.65;;;1.90;;
53108;SDS011;39007;53.090;6.074;2023-04-25T10:42:11;10.10;;;2.08;;
53108;SDS011;39007;53.090;6.074;2023-04-25T10:44:38;11.45;;;2.40;;
53108;SDS011;39007;53.090;6.074;2023-04-25T10:47:06;8.43;;;2.13;;
53108;SDS011;39007;53.090;6.074;2023-04-25T10:52:43;11.38;;;2.40;;
53108;SDS011;39007;53.090;6.074;2023-04-25T10:57:26;8.15;;;2.20;;
53108;SDS011;39007;53.090;6.074;2023-04-25T10:59:53;9.85;;;2.35;;
53108;SDS011;39007;53.090;6.074;2023-04-25T11:02:19;10.23;;;2.45;;
53108;SDS011;39007;53.090;6.074;2023-04-25T11:04:45;8.07;;;1.90;;
53108;SDS011;39007;53.090;6.074;2023-04-25T11:07:23;8.40;;;2.33;;
53108;SDS011;39007;53.090;6.074;2023-04-25T11:09:52;8.90;;;2.05;;
53108;SDS011;39007;53.090;6.074;2023-04-25T11:12:18;11.40;;;2.30;;
53108;SDS011;39007;53.090;6.074;2023-04-25T11:14:44;10.18;;;2.17;;
53108;SDS011;39007;53.090;6.074;2023-04-25T11:17:10;11.73;;;2.42;;
53108;SDS011;39007;53.090;6.074;2023-04-25T11:19:36;11.10;;;2.30;;
53108;SDS011;39007;53.090;6.074;2023-04-25T11:22:03;8.65;;;2.25;;
53108;SDS011;39007;53.090;6.074;2023-04-25T11:24:30;10.23;;;2.40;;
53108;SDS011;39007;53.090;6.074;2023-04-25T11:27:00;13.25;;;2.38;;
53108;SDS011;39007;53.090;6.074;2023-04-25T11:29:28;10.93;;;2.83;;
53108;SDS011;39007;53.090;6.074;2023-04-25T11:31:54;10.38;;;2.17;;
53108;SDS011;39007;53.090;6.074;2023-04-25T11:34:24;12.02;;;2.40;;
53108;SDS011;39007;53.090;6.074;2023-04-25T11:36:50;10.13;;;2.40;;
53108;SDS011;39007;53.090;6.074;2023-04-25T11:39:18;12.93;;;2.65;;
53108;SDS011;39007;53.090;6.074;2023-04-25T11:41:44;9.43;;;2.50;;
53108;SDS011;39007;53.090;6.074;2023-04-25T11:44:10;8.15;;;1.92;;
53108;SDS011;39007;53.090;6.074;2023-04-25T11:46:36;10.85;;;2.42;;
53108;SDS011;39007;53.090;6.074;2023-04-25T11:49:03;10.02;;;2.33;;
53108;SDS011;39007;53.090;6.074;2023-04-25T11:51:30;10.98;;;2.47;;
53108;SDS011;39007;53.090;6.074;2023-04-25T11:53:56;9.38;;;2.05;;
53108;SDS011;39007;53.090;6.074;2023-04-25T11:56:22;9.13;;;2.10;;
53108;SDS011;39007;53.090;6.074;2023-04-25T11:58:58;6.93;;;1.95;;
53108;SDS011;39007;53.090;6.074;2023-04-25T12:01:29;8.38;;;2.20;;
53108;SDS011;39007;53.090;6.074;2023-04-25T12:03:55;9.98;;;2.22;;
53108;SDS011;39007;53.090;6.074;2023-04-25T12:06:25;15.45;;;3.65;;
53108;SDS011;39007;53.090;6.074;2023-04-25T12:09:02;9.25;;;2.40;;
53108;SDS011;39007;53.090;6.074;2023-04-25T12:11:29;9.82;;;2.38;;
53108;SDS011;39007;53.090;6.074;2023-04-25T12:14:01;8.15;;;1.98;;
53108;SDS011;39007;53.090;6.074;2023-04-25T12:16:27;7.35;;;2.00;;
53108;SDS011;39007;53.090;6.074;2023-04-25T12:18:53;8.45;;;2.10;;
53108;SDS011;39007;53.090;6.074;2023-04-25T12:21:20;9.25;;;2.58;;
53108;SDS011;39007;53.090;6.074;2023-04-25T12:23:46;8.77;;;2.17;;
53108;SDS011;39007;53.090;6.074;2023-04-25T12:26:12;13.07;;;2.67;;
53108;SDS011;39007;53.090;6.074;2023-04-25T12:28:38;10.23;;;2.45;;
53108;SDS011;39007;53.090;6.074;2023-04-25T12:31:05;11.48;;;2.45;;
53108;SDS011;39007;53.090;6.074;2023-04-25T12:33:34;10.48;;;2.30;;
53108;SDS011;39007;53.090;6.074;2023-04-25T12:36:01;13.10;;;2.90;;
53108;SDS011;39007;53.090;6.074;2023-04-25T12:38:38;12.77;;;2.67;;
53108;SDS011;39007;53.090;6.074;2023-04-25T12:41:05;13.30;;;2.67;;
53108;SDS011;39007;53.090;6.074;2023-04-25T12:43:31;8.05;;;2.15;;
53108;SDS011;39007;53.090;6.074;2023-04-25T12:45:57;12.20;;;2.33;;
53108;SDS011;39007;53.090;6.074;2023-04-25T12:48:23;12.23;;;2.42;;
53108;SDS011;39007;53.090;6.074;2023-04-25T12:50:50;12.45;;;2.30;;
53108;SDS011;39007;53.090;6.074;2023-04-25T12:53:17;9.50;;;2.05;;
53108;SDS011;39007;53.090;6.074;2023-04-25T12:55:44;24.08;;;12.32;;
53108;SDS011;39007;53.090;6.074;2023-04-25T12:58:17;10.70;;;2.60;;
53108;SDS011;39007;53.090;6.074;2023-04-25T13:00:43;12.57;;;3.13;;
53108;SDS011;39007;53.090;6.074;2023-04-25T13:03:10;9.57;;;2.30;;
53108;SDS011;39007;53.090;6.074;2023-04-25T13:05:37;12.48;;;2.72;;
53108;SDS011;39007;53.090;6.074;2023-04-25T13:08:03;9.02;;;2.13;;
53108;SDS011;39007;53.090;6.074;2023-04-25T13:10:30;10.70;;;2.55;;
53108;SDS011;39007;53.090;6.074;2023-04-25T13:12:56;10.38;;;2.53;;
53108;SDS011;39007;53.090;6.074;2023-04-25T13:15:22;10.38;;;2.30;;
53108;SDS011;39007;53.090;6.074;2023-04-25T13:17:48;11.15;;;2.35;;
53108;SDS011;39007;53.090;6.074;2023-04-25T13:20:14;11.48;;;2.30;;
53108;SDS011;39007;53.090;6.074;2023-04-25T13:22:41;8.45;;;2.17;;
53108;SDS011;39007;53.090;6.074;2023-04-25T13:25:10;12.73;;;2.53;;
53108;SDS011;39007;53.090;6.074;2023-04-25T13:27:36;10.65;;;2.30;;
53108;SDS011;39007;53.090;6.074;2023-04-25T13:30:04;9.63;;;2.13;;
53108;SDS011;39007;53.090;6.074;2023-04-25T13:32:36;8.23;;;2.22;;
53108;SDS011;39007;53.090;6.074;2023-04-25T13:35:03;13.07;;;2.97;;
53108;SDS011;39007;53.090;6.074;2023-04-25T13:37:29;7.85;;;2.17;;
53108;SDS011;39007;53.090;6.074;2023-04-25T13:39:58;9.52;;;2.58;;
53108;SDS011;39007;53.090;6.074;2023-04-25T13:42:24;16.60;;;2.40;;
53108;SDS011;39007;53.090;6.074;2023-04-25T13:44:51;8.07;;;2.17;;
53108;SDS011;39007;53.090;6.074;2023-04-25T13:47:17;8.20;;;2.15;;
53108;SDS011;39007;53.090;6.074;2023-04-25T13:49:43;11.18;;;2.78;;
53108;SDS011;39007;53.090;6.074;2023-04-25T13:52:09;11.60;;;2.40;;
53108;SDS011;39007;53.090;6.074;2023-04-25T13:54:35;11.60;;;2.70;;
53108;SDS011;39007;53.090;6.074;2023-04-25T13:57:01;10.75;;;2.50;;
53108;SDS011;39007;53.090;6.074;2023-04-25T13:59:27;11.45;;;3.45;;
53108;SDS011;39007;53.090;6.074;2023-04-25T14:01:53;12.00;;;2.28;;
53108;SDS011;39007;53.090;6.074;2023-04-25T14:04:20;10.50;;;2.40;;
53108;SDS011;39007;53.090;6.074;2023-04-25T14:06:46;11.45;;;2.42;;
53108;SDS011;39007;53.090;6.074;2023-04-25T14:09:12;9.98;;;2.83;;
53108;SDS011;39007;53.090;6.074;2023-04-25T14:11:38;13.05;;;2.75;;
53108;SDS011;39007;53.090;6.074;2023-04-25T14:14:04;10.55;;;2.17;;
53108;SDS011;39007;53.090;6.074;2023-04-25T14:16:30;9.82;;;2.17;;
53108;SDS011;39007;53.090;6.074;2023-04-25T14:19:00;9.70;;;2.70;;
53108;SDS011;39007;53.090;6.074;2023-04-25T14:21:26;11.85;;;2.47;;
53108;SDS011;39007;53.090;6.074;2023-04-25T14:23:53;9.30;;;2.00;;
53108;SDS011;39007;53.090;6.074;2023-04-25T14:26:19;8.38;;;2.50;;
53108;SDS011;39007;53.090;6.074;2023-04-25T14:28:45;9.88;;;2.28;;
53108;SDS011;39007;53.090;6.074;2023-04-25T14:31:11;8.88;;;2.15;;
53108;SDS011;39007;53.090;6.074;2023-04-25T14:33:38;7.03;;;2.13;;
53108;SDS011;39007;53.090;6.074;2023-04-25T14:36:08;7.82;;;1.98;;
53108;SDS011;39007;53.090;6.074;2023-04-25T14:38:34;8.05;;;1.95;;
53108;SDS011;39007;53.090;6.074;2023-04-25T14:41:00;10.45;;;2.25;;
53108;SDS011;39007;53.090;6.074;2023-04-25T14:43:26;11.57;;;2.50;;
53108;SDS011;39007;53.090;6.074;2023-04-25T14:45:53;8.60;;;2.30;;